Terminal Aerodrome Forecast
Issued by NWS Jackson, KY

Home | Current Version | Previous Version | Text Only | Print | Product List | Glossary On
Versions: 1 2 3 4 5 6 7 8 9 10 11 12 13 14
000
FTUS43 KJKL 190500
TAFLOZ
TAF
KLOZ 190537Z 1906/2006 VRB03KT P6SM SKC
     FM191000 00000KT 6SM BR SKC
     FM191230 00000KT P6SM SCT050=

USA.gov is the U.S. government's official web portal to all federal, state and local government web resources and services.